createdAt,value
2018-01-27T00:00:32.683Z,11.50
2018-01-27T00:03:02.062Z,13.00
2018-01-27T00:05:32.204Z,11.77
2018-01-27T00:08:01.560Z,13.07
2018-01-27T00:10:30.926Z,13.60
2018-01-27T00:13:00.297Z,13.68
2018-01-27T00:15:30.437Z,11.98
2018-01-27T00:17:59.792Z,14.82
2018-01-27T00:20:29.149Z,15.55
2018-01-27T00:22:58.557Z,14.90
2018-01-27T00:25:27.909Z,17.75
2018-01-27T00:27:57.259Z,17.23
2018-01-27T00:30:26.632Z,16.17
2018-01-27T00:32:56.754Z,16.05
2018-01-27T00:35:26.917Z,18.02
2018-01-27T00:37:56.276Z,17.92
2018-01-27T00:40:25.636Z,17.70
2018-01-27T00:42:55.013Z,16.90
2018-01-27T00:45:24.415Z,19.12
2018-01-27T00:47:54.730Z,20.02
2018-01-27T00:50:24.115Z,20.92
2018-01-27T00:52:53.455Z,19.10
2018-01-27T00:55:22.804Z,19.25
2018-01-27T00:57:52.951Z,19.73
2018-01-27T01:00:22.283Z,19.48
2018-01-27T01:02:51.622Z,19.67
2018-01-27T01:05:21.761Z,20.88
2018-01-27T01:07:51.166Z,20.27
2018-01-27T01:10:20.515Z,20.05
2018-01-27T01:12:49.883Z,19.05
2018-01-27T01:15:19.257Z,19.25
2018-01-27T01:17:49.366Z,19.05
2018-01-27T01:20:19.511Z,19.65
2018-01-27T01:22:48.867Z,19.77
2018-01-27T01:25:18.224Z,20.35
2018-01-27T01:27:47.793Z,21.90
2018-01-27T01:30:17.151Z,19.42
2018-01-27T01:32:46.503Z,22.65
2018-01-27T01:35:16.660Z,18.90
2018-01-27T01:37:46.024Z,19.58
2018-01-27T01:40:16.936Z,21.75
2018-01-27T01:42:51.838Z,21.70
2018-01-27T01:45:21.393Z,19.52
2018-01-27T01:47:51.499Z,22.62
2018-01-27T01:50:20.887Z,20.65
2018-01-27T01:52:50.234Z,21.25
2018-01-27T01:55:20.355Z,25.15
2018-01-27T01:57:50.684Z,22.52
2018-01-27T02:00:20.032Z,25.12
2018-01-27T02:02:49.367Z,25.30
2018-01-27T02:05:19.498Z,27.35
2018-01-27T02:07:49.616Z,26.40
2018-01-27T02:10:19.747Z,27.60
2018-01-27T02:12:49.101Z,25.73
2018-01-27T02:15:18.463Z,26.90
2018-01-27T02:17:47.837Z,26.92
2018-01-27T02:20:17.968Z,26.42
2018-01-27T02:22:48.294Z,26.55
2018-01-27T02:25:17.664Z,25.48
2018-01-27T02:27:47.235Z,27.67
2018-01-27T02:30:16.571Z,26.45
2018-01-27T02:32:45.963Z,24.63
2018-01-27T02:35:15.322Z,25.90
2018-01-27T02:37:44.668Z,28.25
2018-01-27T02:40:14.046Z,25.15
2018-01-27T02:42:43.573Z,26.00
2018-01-27T02:45:12.918Z,26.35
2018-01-27T02:47:42.273Z,24.83
2018-01-27T02:52:47.072Z,26.77
2018-01-27T02:55:16.418Z,28.30
2018-01-27T02:57:45.755Z,25.52
2018-01-27T03:00:15.890Z,26.35
2018-01-27T03:02:46.107Z,25.12
2018-01-27T03:05:16.221Z,26.20
2018-01-27T03:07:45.600Z,26.12
2018-01-27T03:10:14.993Z,25.58
2018-01-27T03:12:45.143Z,23.80
2018-01-27T03:15:16.007Z,23.62
2018-01-27T03:17:45.389Z,23.90
2018-01-27T03:20:15.487Z,25.10
2018-01-27T03:22:44.863Z,23.77
2018-01-27T03:25:14.211Z,25.83
2018-01-27T03:27:43.554Z,28.20
2018-01-27T03:30:12.921Z,26.52
2018-01-27T03:32:42.254Z,25.58
2018-01-27T03:35:11.625Z,27.13
2018-01-27T03:37:41.012Z,28.17
2018-01-27T03:40:10.934Z,29.40
2018-01-27T03:42:40.304Z,26.92
2018-01-27T03:45:09.650Z,28.50
2018-01-27T03:47:38.994Z,28.05
2018-01-27T03:50:08.382Z,28.30
2018-01-27T03:52:37.736Z,28.00
2018-01-27T03:55:08.048Z,28.38
2018-01-27T03:57:37.405Z,28.25
2018-01-27T04:00:06.747Z,30.00
2018-01-27T04:02:36.112Z,27.75
2018-01-27T04:05:05.455Z,29.70
2018-01-27T04:07:34.850Z,28.42
2018-01-27T04:10:04.213Z,25.08
2018-01-27T04:12:33.582Z,25.00
2018-01-27T04:15:09.616Z,25.05
2018-01-27T04:17:38.965Z,24.42
2018-01-27T04:20:08.309Z,24.20
2018-01-27T04:22:37.675Z,24.63
2018-01-27T04:25:07.030Z,21.40
2018-01-27T04:27:37.334Z,24.70
2018-01-27T04:30:06.691Z,21.73
2018-01-27T04:32:36.055Z,23.62
2018-01-27T04:35:05.447Z,21.40
2018-01-27T04:37:34.793Z,22.40
2018-01-27T04:40:04.125Z,23.20
2018-01-27T04:42:33.530Z,24.92
2018-01-27T04:45:03.721Z,24.23
2018-01-27T04:47:33.136Z,26.80
2018-01-27T04:50:02.493Z,24.60
2018-01-27T04:52:32.630Z,25.02
2018-01-27T04:55:02.077Z,22.20
2018-01-27T04:57:31.450Z,23.10
2018-01-27T05:00:00.809Z,22.70
2018-01-27T05:02:30.178Z,25.83
2018-01-27T05:04:59.602Z,25.92
2018-01-27T05:07:28.987Z,26.37
2018-01-27T05:09:59.096Z,23.75
2018-01-27T05:12:28.479Z,23.10
2018-01-27T05:14:57.837Z,24.60
2018-01-27T05:17:28.009Z,26.23
2018-01-27T05:19:57.368Z,24.67
2018-01-27T05:22:26.723Z,24.90
2018-01-27T05:24:56.085Z,24.45
2018-01-27T05:27:26.193Z,24.80
2018-01-27T05:29:55.584Z,24.10
2018-01-27T05:32:24.965Z,23.65
2018-01-27T05:34:54.326Z,24.35
2018-01-27T05:37:23.691Z,23.55
2018-01-27T05:39:53.083Z,23.33
2018-01-27T05:42:22.426Z,24.85
2018-01-27T05:44:51.796Z,24.75
2018-01-27T05:47:21.134Z,24.98
2018-01-27T05:49:50.472Z,26.70
2018-01-27T05:52:19.846Z,24.45
2018-01-27T05:54:49.180Z,26.85
2018-01-27T05:57:18.567Z,27.10
2018-01-27T05:59:47.911Z,28.08
2018-01-27T06:02:17.770Z,28.00
2018-01-27T06:04:47.172Z,28.48
2018-01-27T06:07:16.522Z,28.65
2018-01-27T06:09:45.871Z,28.00
2018-01-27T06:12:15.377Z,28.75
2018-01-27T06:14:44.762Z,29.00
2018-01-27T06:17:14.894Z,28.83
2018-01-27T06:19:44.226Z,31.77
2018-01-27T06:22:13.593Z,27.55
2018-01-27T06:24:42.963Z,27.15
2018-01-27T06:27:12.341Z,29.02
2018-01-27T06:29:41.749Z,29.33
2018-01-27T06:32:11.077Z,29.48
2018-01-27T06:34:41.238Z,29.48
2018-01-27T06:37:10.602Z,27.25
2018-01-27T06:39:40.749Z,28.87
2018-01-27T06:42:10.098Z,28.30
2018-01-27T06:44:39.470Z,30.30
2018-01-27T06:47:08.830Z,28.00
2018-01-27T06:49:38.979Z,28.08
2018-01-27T06:52:08.940Z,26.70
2018-01-27T06:54:38.296Z,27.30
2018-01-27T06:57:07.664Z,27.08
2018-01-27T06:59:37.847Z,26.30
2018-01-27T07:02:07.190Z,25.65
2018-01-27T07:04:36.543Z,28.17
2018-01-27T07:07:05.890Z,25.62
2018-01-27T07:09:35.256Z,26.55
2018-01-27T07:12:04.609Z,25.67
2018-01-27T07:14:33.953Z,24.80
2018-01-27T07:17:03.333Z,24.92
2018-01-27T07:19:32.899Z,24.45
2018-01-27T07:22:03.012Z,25.58
2018-01-27T07:24:32.377Z,26.17
2018-01-27T07:27:01.750Z,24.20
2018-01-27T07:29:31.094Z,24.48
2018-01-27T07:32:00.469Z,25.20
2018-01-27T07:34:30.408Z,25.17
2018-01-27T07:37:00.567Z,22.95
2018-01-27T07:39:30.688Z,22.30
2018-01-27T07:42:00.839Z,24.45
2018-01-27T07:44:30.189Z,28.08
2018-01-27T07:46:59.539Z,24.10
2018-01-27T07:49:28.908Z,25.83
2018-01-27T07:51:59.016Z,24.73
2018-01-27T07:54:28.396Z,26.30
2018-01-27T07:56:57.942Z,28.48
2018-01-27T07:59:28.047Z,27.30
2018-01-27T08:01:57.426Z,27.17
2018-01-27T08:04:26.771Z,36.63
2018-01-27T08:06:56.918Z,36.28
2018-01-27T08:09:26.305Z,30.05
2018-01-27T08:11:56.457Z,27.75
2018-01-27T08:14:25.867Z,27.55
2018-01-27T08:16:55.223Z,28.00
2018-01-27T08:19:24.590Z,28.92
2018-01-27T08:21:54.005Z,27.90
2018-01-27T08:24:23.364Z,29.98
2018-01-27T08:26:52.736Z,30.92
2018-01-27T08:29:22.109Z,26.98
2018-01-27T08:31:51.461Z,29.00
2018-01-27T08:34:20.805Z,28.25
2018-01-27T08:36:50.419Z,29.37
2018-01-27T08:39:20.544Z,30.77
2018-01-27T08:41:50.701Z,29.25
2018-01-27T08:44:20.113Z,27.45
2018-01-27T08:46:49.494Z,26.75
2018-01-27T08:49:18.852Z,24.70
2018-01-27T08:51:48.255Z,28.75
2018-01-27T08:54:17.673Z,29.52
2018-01-27T08:56:47.820Z,29.45
2018-01-27T08:59:17.935Z,27.23
2018-01-27T09:01:48.136Z,24.67
2018-01-27T09:04:17.516Z,26.25
2018-01-27T09:06:47.682Z,25.37
2018-01-27T09:09:17.054Z,21.77
2018-01-27T09:11:46.423Z,25.00
2018-01-27T09:14:15.790Z,23.20
2018-01-27T09:16:45.197Z,26.45
2018-01-27T09:19:14.595Z,28.00
2018-01-27T09:21:43.982Z,26.87
2018-01-27T09:24:14.104Z,26.02
2018-01-27T09:26:44.263Z,24.37
2018-01-27T09:29:13.606Z,24.12
2018-01-27T09:31:42.966Z,24.12
2018-01-27T09:34:12.436Z,27.15
2018-01-27T09:36:41.833Z,24.92
2018-01-27T09:39:11.240Z,27.55
2018-01-27T09:41:40.720Z,24.35
2018-01-27T09:44:10.166Z,25.27
2018-01-27T09:46:39.587Z,24.63
2018-01-27T09:49:08.975Z,24.48
2018-01-27T09:51:39.036Z,22.60
2018-01-27T09:54:09.703Z,21.77
2018-01-27T09:56:39.261Z,23.20
2018-01-27T09:59:08.700Z,21.08
2018-01-27T10:01:38.819Z,21.58
2018-01-27T10:04:08.201Z,20.30
2018-01-27T10:06:37.560Z,21.00
2018-01-27T10:09:06.936Z,22.17
2018-01-27T10:11:36.346Z,20.42
2018-01-27T10:14:06.486Z,20.58
2018-01-27T10:16:35.843Z,19.45
2018-01-27T10:19:05.464Z,21.58
2018-01-27T10:21:35.608Z,17.25
2018-01-27T10:24:04.976Z,21.48
2018-01-27T10:26:34.446Z,22.95
2018-01-27T10:29:04.627Z,22.15
2018-01-27T10:31:33.971Z,21.95
2018-01-27T10:34:03.449Z,22.20
2018-01-27T10:36:32.817Z,19.90
2018-01-27T10:39:02.168Z,18.48
2018-01-27T10:41:31.569Z,19.15
2018-01-27T10:44:01.057Z,21.90
2018-01-27T10:46:30.424Z,19.55
2018-01-27T10:48:59.793Z,18.95
2018-01-27T10:51:29.164Z,18.15
2018-01-27T10:53:58.526Z,18.08
2018-01-27T10:56:28.641Z,18.05
2018-01-27T10:58:58.012Z,24.10
2018-01-27T11:01:27.393Z,36.08
2018-01-27T11:03:56.738Z,23.90
2018-01-27T11:06:26.108Z,20.12
2018-01-27T11:08:55.463Z,20.62
2018-01-27T11:11:25.571Z,19.30
2018-01-27T11:13:54.929Z,20.98
2018-01-27T11:16:24.297Z,21.05
2018-01-27T11:18:54.425Z,22.25
2018-01-27T11:21:23.811Z,23.45
2018-01-27T11:23:53.960Z,19.73
2018-01-27T11:26:23.335Z,22.62
2018-01-27T11:28:53.612Z,20.65
2018-01-27T11:31:22.974Z,19.55
2018-01-27T11:33:52.324Z,20.33
2018-01-27T11:36:21.729Z,21.48
2018-01-27T11:38:51.080Z,18.90
2018-01-27T11:41:20.454Z,19.27
2018-01-27T11:43:49.808Z,16.90
2018-01-27T11:46:19.168Z,19.17
2018-01-27T11:48:49.278Z,17.00
2018-01-27T11:51:18.624Z,16.87
2018-01-27T11:53:47.986Z,17.00
2018-01-27T11:56:18.113Z,16.60
2018-01-27T11:58:48.252Z,16.45
2018-01-27T12:01:17.645Z,18.15
2018-01-27T12:03:47.782Z,14.70
2018-01-27T12:06:17.140Z,16.27
2018-01-27T12:08:46.495Z,15.88
2018-01-27T12:11:15.878Z,14.98
2018-01-27T12:13:45.235Z,19.12
2018-01-27T12:16:14.598Z,17.95
2018-01-27T12:18:43.967Z,19.12
2018-01-27T12:21:14.090Z,18.23
2018-01-27T12:23:44.376Z,19.50
2018-01-27T12:26:14.347Z,19.45
2018-01-27T12:28:43.932Z,19.12
2018-01-27T12:31:14.044Z,18.08
2018-01-27T12:33:43.398Z,21.05
2018-01-27T12:36:12.786Z,21.85
2018-01-27T12:38:42.202Z,19.52
2018-01-27T12:41:11.527Z,19.40
2018-01-27T12:43:41.836Z,20.33
2018-01-27T12:46:11.205Z,20.17
2018-01-27T12:48:40.579Z,21.45
2018-01-27T12:51:10.686Z,21.42
2018-01-27T12:53:40.047Z,21.77
2018-01-27T12:56:09.430Z,21.45
2018-01-27T12:58:38.783Z,20.20
2018-01-27T13:01:08.557Z,20.95
2018-01-27T13:03:38.672Z,23.45
2018-01-27T13:06:08.046Z,21.00
2018-01-27T13:08:38.164Z,22.80
2018-01-27T13:11:08.353Z,21.77
2018-01-27T13:13:37.710Z,23.73
2018-01-27T13:16:07.080Z,23.10
2018-01-27T13:18:36.458Z,25.17
2018-01-27T13:21:05.808Z,21.50
2018-01-27T13:23:35.188Z,20.95
2018-01-27T13:26:04.561Z,20.77
2018-01-27T13:28:33.923Z,19.25
2018-01-27T13:31:03.290Z,20.50
2018-01-27T13:33:32.700Z,18.10
2018-01-27T13:36:03.006Z,20.92
2018-01-27T13:38:32.423Z,18.35
2018-01-27T13:41:01.804Z,20.17
2018-01-27T13:43:31.164Z,19.17
2018-01-27T13:46:00.530Z,18.85
2018-01-27T13:48:30.692Z,18.42
2018-01-27T13:51:00.064Z,21.40
2018-01-27T13:53:29.430Z,21.40
2018-01-27T13:55:58.781Z,19.48
2018-01-27T13:58:28.275Z,19.95
2018-01-27T14:00:58.335Z,19.95
2018-01-27T14:03:27.714Z,19.60
2018-01-27T14:05:57.100Z,21.12
2018-01-27T14:08:27.295Z,19.00
2018-01-27T14:10:56.743Z,18.40
2018-01-27T14:13:26.110Z,18.20
2018-01-27T14:15:55.502Z,19.27
2018-01-27T14:18:24.847Z,18.15
2018-01-27T14:20:54.232Z,17.92
2018-01-27T14:23:24.352Z,19.37
2018-01-27T14:25:54.491Z,22.55
2018-01-27T14:28:23.870Z,21.65
2018-01-27T14:30:53.239Z,17.77
2018-01-27T14:33:22.599Z,19.73
2018-01-27T14:35:52.064Z,19.50
2018-01-27T14:38:22.196Z,21.27
2018-01-27T14:40:51.589Z,20.65
2018-01-27T14:43:21.155Z,19.65
2018-01-27T14:45:50.513Z,20.55
2018-01-27T14:48:20.679Z,20.45
2018-01-27T14:50:50.052Z,21.48
2018-01-27T14:53:19.406Z,19.02
2018-01-27T14:55:48.772Z,21.25
2018-01-27T14:58:18.149Z,18.20
2018-01-27T15:00:47.517Z,19.85
2018-01-27T15:03:16.879Z,19.50
2018-01-27T15:05:46.254Z,18.60
2018-01-27T15:08:16.402Z,19.50
2018-01-27T15:10:45.799Z,18.40
2018-01-27T15:13:15.199Z,20.15
2018-01-27T15:15:44.566Z,18.70
2018-01-27T15:18:14.719Z,20.23
2018-01-27T15:20:44.079Z,20.65
2018-01-27T15:23:13.426Z,21.60
2018-01-27T15:25:42.848Z,21.77
2018-01-27T15:28:12.228Z,20.60
2018-01-27T15:30:41.571Z,20.65
2018-01-27T15:33:10.944Z,20.85
2018-01-27T15:35:40.307Z,22.52
2018-01-27T15:38:09.682Z,22.00
2018-01-27T15:40:39.036Z,21.98
2018-01-27T15:43:08.392Z,22.23
2018-01-27T15:45:37.764Z,20.88
2018-01-27T15:48:07.126Z,20.88
2018-01-27T15:50:36.510Z,21.55
2018-01-27T15:53:06.645Z,21.45
2018-01-27T15:55:35.991Z,21.20
2018-01-27T15:58:05.359Z,22.08
2018-01-27T16:00:34.727Z,21.42
2018-01-27T16:03:04.875Z,22.08
2018-01-27T16:05:34.249Z,21.35
2018-01-27T16:08:04.541Z,21.10
2018-01-27T16:10:33.901Z,20.23
2018-01-27T16:13:03.255Z,21.80
2018-01-27T16:15:32.610Z,28.48
2018-01-27T16:18:01.964Z,28.20
2018-01-27T16:20:31.333Z,24.30
2018-01-27T16:23:00.703Z,22.70
2018-01-27T16:25:30.096Z,22.33
2018-01-27T16:28:00.229Z,22.10
2018-01-27T16:30:29.599Z,20.35
2018-01-27T16:32:58.952Z,20.25
2018-01-27T16:35:28.327Z,22.83
2018-01-27T16:37:58.455Z,21.05
2018-01-27T16:40:27.820Z,23.00
2018-01-27T16:42:57.180Z,22.90
2018-01-27T16:45:26.520Z,23.40
2018-01-27T16:47:55.912Z,25.55
2018-01-27T16:50:25.309Z,23.02
2018-01-27T16:52:54.677Z,25.02
2018-01-27T16:55:24.029Z,23.08
2018-01-27T16:57:53.382Z,24.30
2018-01-27T17:00:22.727Z,22.50
2018-01-27T17:02:52.100Z,24.05
2018-01-27T17:05:21.451Z,23.87
2018-01-27T17:07:50.836Z,22.77
2018-01-27T17:10:20.198Z,21.10
2018-01-27T17:12:49.558Z,22.23
2018-01-27T17:15:18.922Z,23.70
2018-01-27T17:17:48.268Z,24.63
2018-01-27T17:20:18.422Z,24.40
2018-01-27T17:22:47.776Z,23.87
2018-01-27T17:25:17.195Z,24.35
2018-01-27T17:27:47.333Z,22.25
2018-01-27T17:30:16.691Z,21.80
2018-01-27T17:32:46.073Z,22.75
2018-01-27T17:35:15.418Z,21.08
2018-01-27T17:37:45.539Z,22.42
2018-01-27T17:40:15.664Z,21.60
2018-01-27T17:42:45.012Z,20.90
2018-01-27T17:45:14.367Z,22.35
2018-01-27T17:47:44.488Z,22.40
2018-01-27T17:50:14.750Z,21.37
2018-01-27T17:52:44.114Z,19.85
2018-01-27T17:55:14.228Z,20.02
2018-01-27T17:57:44.373Z,21.60
2018-01-27T18:00:13.717Z,19.62
2018-01-27T18:02:43.072Z,21.00
2018-01-27T18:05:12.449Z,21.42
2018-01-27T18:07:42.584Z,21.48
2018-01-27T18:10:11.950Z,18.40
2018-01-27T18:12:41.309Z,21.48
2018-01-27T18:15:10.686Z,22.35
2018-01-27T18:17:40.054Z,21.80
2018-01-27T18:20:09.413Z,21.60
2018-01-27T18:22:38.758Z,23.83
2018-01-27T18:25:08.132Z,22.50
2018-01-27T18:27:37.496Z,25.00
2018-01-27T18:30:07.617Z,23.85
2018-01-27T18:32:36.977Z,24.85
2018-01-27T18:35:06.353Z,26.50
2018-01-27T18:37:35.768Z,23.67
2018-01-27T18:40:05.319Z,24.37
2018-01-27T18:42:34.703Z,24.50
2018-01-27T18:45:04.166Z,23.40
2018-01-27T18:47:33.539Z,22.55
2018-01-27T18:50:02.953Z,25.00
2018-01-27T18:52:32.334Z,24.08
2018-01-27T18:55:02.520Z,25.60
2018-01-27T18:57:31.892Z,34.22
2018-01-27T19:00:01.300Z,31.25
2018-01-27T19:02:30.708Z,31.65
2018-01-27T19:05:00.722Z,33.92
2018-01-27T19:07:30.072Z,33.80
2018-01-27T19:10:00.228Z,28.40
2018-01-27T19:12:30.199Z,31.35
2018-01-27T19:14:59.557Z,30.02
2018-01-27T19:17:28.925Z,28.27
2018-01-27T19:19:59.090Z,24.00
2018-01-27T19:22:28.434Z,26.95
2018-01-27T19:24:57.869Z,25.73
2018-01-27T19:27:27.257Z,28.33
2018-01-27T19:29:56.623Z,24.05
2018-01-27T19:32:25.994Z,23.10
2018-01-27T19:34:55.345Z,23.05
2018-01-27T19:37:25.489Z,24.33
2018-01-27T19:39:54.863Z,26.60
2018-01-27T19:42:25.208Z,24.75
2018-01-27T19:44:55.353Z,26.40
2018-01-27T19:47:24.741Z,25.35
2018-01-27T19:49:54.121Z,26.60
2018-01-27T19:52:24.241Z,26.95
2018-01-27T19:54:54.366Z,31.83
2018-01-27T19:57:24.508Z,29.52
2018-01-27T19:59:53.928Z,27.40
2018-01-27T20:02:23.275Z,26.37
2018-01-27T20:04:52.639Z,28.35
2018-01-27T20:07:22.018Z,24.95
2018-01-27T20:09:51.362Z,25.17
2018-01-27T20:12:20.727Z,31.62
2018-01-27T20:14:50.125Z,26.80
2018-01-27T20:17:19.484Z,25.80
2018-01-27T20:19:48.841Z,25.70
2018-01-27T20:22:18.239Z,25.15
2018-01-27T20:24:47.597Z,25.27
2018-01-27T20:27:16.961Z,25.65
2018-01-27T20:29:46.317Z,25.12
2018-01-27T20:32:16.464Z,24.00
2018-01-27T20:34:45.821Z,24.48
2018-01-27T20:37:15.179Z,25.88
2018-01-27T20:39:44.555Z,25.52
2018-01-27T20:42:13.897Z,25.15
2018-01-27T20:44:43.248Z,27.20
2018-01-27T20:47:12.608Z,23.48
2018-01-27T20:49:41.958Z,25.12
2018-01-27T20:52:11.364Z,23.87
2018-01-27T20:54:40.721Z,25.90
2018-01-27T20:57:10.099Z,25.17
2018-01-27T20:59:39.471Z,24.50
2018-01-27T21:02:09.712Z,27.55
2018-01-27T21:04:39.077Z,28.02
2018-01-27T21:07:08.461Z,28.90
2018-01-27T21:09:38.252Z,30.90
2018-01-27T21:12:08.379Z,27.65
2018-01-27T21:14:37.752Z,26.73
2018-01-27T21:17:07.145Z,25.90
2018-01-27T21:19:36.494Z,29.42
2018-01-27T21:22:05.840Z,28.83
2018-01-27T21:24:35.208Z,29.90
2018-01-27T21:27:04.544Z,26.98
2018-01-27T21:29:33.929Z,25.65
2018-01-27T21:32:04.556Z,26.35
2018-01-27T21:34:34.683Z,26.40
2018-01-27T21:37:04.822Z,27.25
2018-01-27T21:39:34.190Z,26.95
2018-01-27T21:42:03.538Z,27.02
2018-01-27T21:44:32.915Z,26.55
2018-01-27T21:47:02.272Z,29.35
2018-01-27T21:49:31.637Z,29.48
2018-01-27T21:52:01.011Z,27.50
2018-01-27T21:54:30.372Z,30.60
2018-01-27T21:56:59.716Z,27.80
2018-01-27T21:59:29.106Z,26.62
2018-01-27T22:01:59.210Z,27.15
2018-01-27T22:04:28.583Z,28.30
2018-01-27T22:06:57.958Z,28.05
2018-01-27T22:09:27.311Z,28.77
2018-01-27T22:11:56.671Z,28.80
2018-01-27T22:14:26.025Z,30.90
2018-01-27T22:16:55.403Z,30.37
2018-01-27T22:19:25.265Z,30.15
2018-01-27T22:21:54.645Z,31.50
2018-01-27T22:24:24.023Z,29.65
2018-01-27T22:26:53.376Z,28.73
2018-01-27T22:29:22.741Z,30.65
2018-01-27T22:31:52.108Z,29.23
2018-01-27T22:34:21.477Z,32.20
2018-01-27T22:36:50.831Z,32.30
2018-01-27T22:39:20.210Z,29.10
2018-01-27T22:41:49.555Z,28.27
2018-01-27T22:44:18.926Z,27.10
2018-01-27T22:46:48.295Z,24.95
2018-01-27T22:49:17.647Z,27.52
2018-01-27T22:51:47.000Z,29.02
2018-01-27T22:54:16.371Z,28.35
2018-01-27T22:56:46.509Z,27.55
2018-01-27T22:59:15.857Z,31.27
2018-01-27T23:01:45.226Z,27.90
2018-01-27T23:04:14.583Z,27.90
2018-01-27T23:06:43.943Z,29.65
2018-01-27T23:09:13.321Z,27.45
2018-01-27T23:11:42.685Z,30.50
2018-01-27T23:14:12.051Z,31.08
2018-01-27T23:16:41.413Z,30.35
2018-01-27T23:19:11.543Z,28.10
2018-01-27T23:21:40.922Z,27.42
2018-01-27T23:24:10.282Z,27.05
2018-01-27T23:26:39.645Z,26.55
2018-01-27T23:29:09.018Z,26.98
2018-01-27T23:31:38.377Z,28.87
2018-01-27T23:34:07.718Z,26.37
2018-01-27T23:36:37.081Z,27.30
2018-01-27T23:39:06.431Z,27.37
2018-01-27T23:41:35.777Z,27.17
2018-01-27T23:44:05.140Z,25.35
2018-01-27T23:46:35.291Z,27.67
2018-01-27T23:49:04.654Z,27.67
2018-01-27T23:51:34.039Z,27.50
2018-01-27T23:54:03.391Z,26.73
2018-01-27T23:56:32.744Z,27.60
2018-01-27T23:59:02.126Z,26.98
